Bookmark and Share
Track history (hours):
 

Kaisei Maru

Last reported at 2014-Apr-20 02:32 UTC. Time now 2014-Apr-20 03:22 UTC.
Position N 34°41' E 135°12'.

Length 52 m; draft 3 m.

Type: Tanker. MMSI: 431001837.

NotesDate/timePositionNaut miles runAvg speedWind from/ knotsBaromVisibWave heightAir tempDewpointWater temp
2014-Apr-20 02:32N 34°41' E 135°12'0 0.0
2014-Apr-20 01:26N 34°41' E 135°12'0 0.0
2014-Apr-20 00:32N 34°41' E 135°12'0 0.0
2014-Apr-19 23:32N 34°41' E 135°12'0 0.0
2014-Apr-19 22:32N 34°41' E 135°12'0 0.0
2014-Apr-19 21:32N 34°41' E 135°12'0 0.0
2014-Apr-19 20:32N 34°41' E 135°12'0 0.0
2014-Apr-19 19:26N 34°41' E 135°12'0 0.0
2014-Apr-19 18:26N 34°41' E 135°12'0 0.0
2014-Apr-19 17:32N 34°41' E 135°12'0 0.0
2014-Apr-19 16:26N 34°41' E 135°12'0 0.0
2014-Apr-19 15:32N 34°41' E 135°12'0 0.0
2014-Apr-19 14:32N 34°41' E 135°12'0 0.0
2014-Apr-19 13:26N 34°41' E 135°12'0 0.0
2014-Apr-19 12:26N 34°41' E 135°12'4 4.7
2014-Apr-19 11:33N 34°39' E 135°16'10 9.8
2014-Apr-19 10:33N 34°30' E 135°11'11 9.5
2014-Apr-19 09:26N 34°20' E 135°05'910.3
2014-Apr-19 08:32N 34°11' E 135°02'207 8.1
2014-Apr-18 07:07N 34°51' E 139°09'610.8
2014-Apr-18 06:32N 34°56' E 139°14'1110.8
2014-Apr-18 05:32N 35°01' E 139°26'1110.9
2014-Apr-18 04:33N 35°06' E 139°37'1111.0
2014-Apr-18 03:33N 35°14' E 139°46'1010.2
2014-Apr-18 02:33N 35°23' E 139°43'7 6.8
2014-Apr-18 01:31N 35°29' E 139°48'3 1.4
2014-Apr-17 23:29N 35°31' E 139°46'3 3.1
2014-Apr-17 22:32N 35°29' E 139°48'0 0.0
2014-Apr-17 21:32N 35°29' E 139°48'0 0.0
2014-Apr-17 20:32N 35°29' E 139°48'0 0.0
2014-Apr-17 19:32N 35°29' E 139°48'0 0.0
2014-Apr-17 18:32N 35°29' E 139°48'0 0.0
2014-Apr-17 17:32N 35°29' E 139°48'0 0.0
2014-Apr-17 16:29N 35°29' E 139°48'0 0.0
2014-Apr-17 15:32N 35°29' E 139°48'0 0.0
2014-Apr-17 14:29N 35°29' E 139°48'2 2.0
2014-Apr-17 13:33N 35°27' E 139°48'10 9.6
2014-Apr-17 12:33N 35°17' E 139°45'1010.0
2014-Apr-17 11:33N 35°07' E 139°46'1111.2
2014-Apr-17 10:33N 34°60' E 139°36'2311.3
2014-Apr-17 08:33N 34°47' E 139°13'210 4.5
2014-Apr-15 09:34N 34°09' E 135°02'10 9.7
2014-Apr-15 08:32N 34°19' E 135°04'1010.0
2014-Apr-15 07:33N 34°24' E 135°15'4 2.1
2014-Apr-15 05:34N 34°26' E 135°19'2 0.6
2014-Apr-15 02:33N 34°27' E 135°18'8 8.2
2014-Apr-15 01:33N 34°32' E 135°10'1211.1
2014-Apr-15 00:31N 34°36' E 134°57'1 0.2
2014-Apr-14 18:34N 34°38' E 134°57'9 9.0
2014-Apr-14 17:34N 34°37' E 135°08'6 0.5
2014-Apr-14 05:33N 34°41' E 135°13'9 1.3
2014-Apr-13 22:33N 34°36' E 135°22'9 8.6
2014-Apr-13 21:33N 34°41' E 135°13'1 1.0
2014-Apr-13 20:33N 34°41' E 135°12'0 0.0
2014-Apr-13 19:31N 34°41' E 135°12'0 0.0
2014-Apr-13 18:31N 34°41' E 135°12'0 0.0
2014-Apr-13 17:31N 34°41' E 135°12'0 0.0
2014-Apr-13 16:25N 34°41' E 135°12'0 0.0
2014-Apr-13 15:31N 34°41' E 135°12'0 0.0
2014-Apr-13 14:19N 34°41' E 135°12'0 0.0
2014-Apr-13 13:31N 34°41' E 135°12'0 0.0
2014-Apr-13 12:31N 34°41' E 135°12'0 0.0
2014-Apr-13 11:31N 34°41' E 135°12'0 0.0
2014-Apr-13 10:25N 34°41' E 135°12'0 0.0
2014-Apr-13 09:31N 34°41' E 135°12'0 0.0
2014-Apr-13 08:31N 34°41' E 135°12'0 0.0
2014-Apr-13 07:31N 34°41' E 135°12'0 0.0
2014-Apr-13 06:31N 34°41' E 135°12'0 0.0
2014-Apr-13 05:25N 34°41' E 135°12'0 0.0
2014-Apr-13 04:19N 34°41' E 135°12'0 0.1
2014-Apr-13 03:31N 34°41' E 135°12'0 0.0
2014-Apr-13 02:25N 34°41' E 135°12'0 0.0
2014-Apr-13 01:25N 34°41' E 135°12'0 0.0
2014-Apr-13 00:25N 34°41' E 135°12'0 0.0
2014-Apr-12 23:31N 34°41' E 135°12'0 0.0
2014-Apr-12 22:31N 34°41' E 135°12'0 0.0
2014-Apr-12 21:25N 34°41' E 135°12'0 0.0
2014-Apr-12 20:25N 34°41' E 135°12'0 0.0
2014-Apr-12 19:19N 34°41' E 135°12'0 0.0
2014-Apr-12 18:31N 34°41' E 135°12'0 0.0
2014-Apr-12 17:31N 34°41' E 135°12'0 0.0
2014-Apr-12 16:31N 34°41' E 135°12'0 0.0
2014-Apr-12 15:31N 34°41' E 135°12'0 0.0
2014-Apr-12 14:31N 34°41' E 135°12'0 0.0
2014-Apr-12 13:31N 34°41' E 135°12'0 0.0
2014-Apr-12 12:19N 34°41' E 135°12'0 0.0
2014-Apr-12 11:31N 34°41' E 135°12'0 0.0
2014-Apr-12 10:31N 34°41' E 135°12'0 0.0
2014-Apr-12 09:31N 34°41' E 135°12'0 0.0
2014-Apr-12 08:31N 34°41' E 135°12'0 0.0
2014-Apr-12 07:31N 34°41' E 135°12'0 0.0
2014-Apr-12 06:31N 34°41' E 135°12'0 0.0
2014-Apr-12 05:31N 34°41' E 135°12'0 0.0
2014-Apr-12 04:31N 34°41' E 135°12'0 0.0
2014-Apr-12 03:31N 34°41' E 135°12'0 0.0
2014-Apr-12 02:19N 34°41' E 135°12'0 0.0
2014-Apr-12 01:31N 34°41' E 135°12'0 0.0
2014-Apr-12 00:31N 34°41' E 135°12'0 0.0
2014-Apr-11 23:31N 34°41' E 135°12'0 0.0
2014-Apr-11 22:31N 34°41' E 135°12'0 0.0
2014-Apr-11 20:25N 34°41' E 135°12'0 0.0
2014-Apr-11 19:31N 34°41' E 135°12'0 0.0
2014-Apr-11 18:25N 34°41' E 135°12'0 0.0
2014-Apr-11 17:31N 34°41' E 135°12'0 0.0
2014-Apr-11 16:31N 34°41' E 135°12'0 0.0
2014-Apr-11 15:31N 34°41' E 135°12'0 0.0
2014-Apr-11 14:25N 34°41' E 135°12'0 0.0
2014-Apr-11 13:31N 34°41' E 135°12'0 0.0
2014-Apr-11 12:31N 34°41' E 135°12'0 0.0
2014-Apr-11 11:31N 34°41' E 135°12'0 0.0
2014-Apr-11 10:31N 34°41' E 135°12'0 0.0
2014-Apr-11 09:31N 34°41' E 135°12'0 0.0
2014-Apr-11 08:31N 34°41' E 135°12'0 0.0
2014-Apr-11 07:25N 34°41' E 135°12'0 0.0
2014-Apr-11 06:25N 34°41' E 135°12'0 0.1
2014-Apr-11 05:31N 34°41' E 135°12'0 0.0
2014-Apr-11 04:25N 34°41' E 135°12'0 0.1
2014-Apr-11 03:31N 34°41' E 135°12'0 0.0
2014-Apr-11 02:25N 34°41' E 135°12'0 0.0
2014-Apr-11 01:31N 34°41' E 135°12'0 0.0
2014-Apr-11 00:31N 34°41' E 135°12'0 0.0
2014-Apr-10 23:19N 34°41' E 135°12'0 0.0
2014-Apr-10 22:31N 34°41' E 135°12'0 0.0
2014-Apr-10 21:31N 34°41' E 135°12'0 0.0
2014-Apr-10 20:31N 34°41' E 135°12'0 0.0
2014-Apr-10 19:31N 34°41' E 135°12'0 0.0
2014-Apr-10 18:13N 34°41' E 135°12'0 0.0
2014-Apr-10 17:31N 34°41' E 135°12'0 0.0
2014-Apr-10 16:25N 34°41' E 135°12'0 0.0
2014-Apr-10 15:31N 34°41' E 135°12'0 0.0
2014-Apr-10 14:31N 34°41' E 135°12'0 0.0
2014-Apr-10 13:31N 34°41' E 135°12'0 0.0
2014-Apr-10 12:31N 34°41' E 135°12'0 0.0
2014-Apr-10 11:25N 34°41' E 135°12'0 0.0
2014-Apr-10 10:31N 34°41' E 135°12'0 0.0
2014-Apr-10 09:31N 34°41' E 135°12'0 0.0
2014-Apr-10 08:31N 34°41' E 135°12'0 0.0
2014-Apr-10 07:25N 34°41' E 135°12'0 0.1
2014-Apr-10 06:31N 34°41' E 135°12'0 0.0
2014-Apr-10 05:31N 34°41' E 135°12'0 0.0
2014-Apr-10 04:31N 34°41' E 135°12'0 0.0
2014-Apr-10 03:19N 34°41' E 135°12'  

Dump ship's entire track history

sailing weather and tide predictions

Kaisei Maru — JD3114 — position and weather